sensor_id;sensor_type;location;lat;lon;timestamp;pressure;altitude;pressure_sealevel;temperature;humidity
42601;BME280;28229;48.856;9.088;2022-08-19T00:01:54;97536.88;;;20.42;67.69
42601;BME280;28229;48.856;9.088;2022-08-19T00:04:23;97537.19;;;20.41;67.52
42601;BME280;28229;48.856;9.088;2022-08-19T00:06:50;97531.84;;;20.41;67.70
42601;BME280;28229;48.856;9.088;2022-08-19T00:09:17;97534.16;;;20.47;67.24
42601;BME280;28229;48.856;9.088;2022-08-19T00:11:44;97530.19;;;20.45;67.21
42601;BME280;28229;48.856;9.088;2022-08-19T00:14:14;97520.72;;;20.52;66.84
42601;BME280;28229;48.856;9.088;2022-08-19T00:16:42;97524.84;;;20.45;67.13
42601;BME280;28229;48.856;9.088;2022-08-19T00:19:09;97534.16;;;20.47;67.05
42601;BME280;28229;48.856;9.088;2022-08-19T00:21:36;97539.56;;;20.42;66.95
42601;BME280;28229;48.856;9.088;2022-08-19T00:24:09;97544.63;;;20.44;67.26
42601;BME280;28229;48.856;9.088;2022-08-19T00:26:36;97541.22;;;20.38;67.12
42601;BME280;28229;48.856;9.088;2022-08-19T00:29:04;97540.59;;;20.46;67.09
42601;BME280;28229;48.856;9.088;2022-08-19T00:31:30;97537.38;;;20.44;67.08
42601;BME280;28229;48.856;9.088;2022-08-19T00:33:56;97533.72;;;20.40;67.12
42601;BME280;28229;48.856;9.088;2022-08-19T00:36:22;97524.22;;;20.34;67.05
42601;BME280;28229;48.856;9.088;2022-08-19T00:38:48;97518.34;;;20.32;67.30
42601;BME280;28229;48.856;9.088;2022-08-19T00:41:19;97511.78;;;20.43;67.39
42601;BME280;28229;48.856;9.088;2022-08-19T00:44:10;97506.00;;;20.36;67.42
42601;BME280;28229;48.856;9.088;2022-08-19T00:46:39;97495.75;;;20.43;66.99
42601;BME280;28229;48.856;9.088;2022-08-19T00:51:45;97495.53;;;20.40;67.38
42601;BME280;28229;48.856;9.088;2022-08-19T00:54:12;97496.09;;;20.37;67.24
42601;BME280;28229;48.856;9.088;2022-08-19T00:56:39;97501.53;;;20.31;67.63
42601;BME280;28229;48.856;9.088;2022-08-19T00:59:06;97501.25;;;20.33;67.54
42601;BME280;28229;48.856;9.088;2022-08-19T01:01:36;97510.94;;;20.29;67.70
42601;BME280;28229;48.856;9.088;2022-08-19T01:04:02;97518.13;;;20.28;68.05
42601;BME280;28229;48.856;9.088;2022-08-19T01:06:28;97520.09;;;20.23;68.17
42601;BME280;28229;48.856;9.088;2022-08-19T01:08:56;97525.63;;;20.26;68.14
42601;BME280;28229;48.856;9.088;2022-08-19T01:11:22;97517.41;;;20.23;68.32
42601;BME280;28229;48.856;9.088;2022-08-19T01:13:49;97523.09;;;20.35;67.76
42601;BME280;28229;48.856;9.088;2022-08-19T01:16:20;97519.00;;;20.24;68.55
42601;BME280;28229;48.856;9.088;2022-08-19T01:18:47;97521.75;;;20.19;68.77
42601;BME280;28229;48.856;9.088;2022-08-19T01:21:34;97516.28;;;20.29;68.28
42601;BME280;28229;48.856;9.088;2022-08-19T01:24:01;97516.91;;;20.21;68.58
42601;BME280;28229;48.856;9.088;2022-08-19T01:26:27;97504.13;;;20.17;68.84
42601;BME280;28229;48.856;9.088;2022-08-19T01:28:55;97516.41;;;20.19;68.62
42601;BME280;28229;48.856;9.088;2022-08-19T01:31:25;97512.56;;;20.25;68.77
42601;BME280;28229;48.856;9.088;2022-08-19T01:33:52;97517.28;;;20.33;68.26
42601;BME280;28229;48.856;9.088;2022-08-19T01:36:27;97505.59;;;20.29;68.47
42601;BME280;28229;48.856;9.088;2022-08-19T01:38:53;97513.09;;;20.27;68.86
42601;BME280;28229;48.856;9.088;2022-08-19T01:41:19;97511.50;;;20.26;68.68
42601;BME280;28229;48.856;9.088;2022-08-19T01:43:45;97510.50;;;20.22;69.05
42601;BME280;28229;48.856;9.088;2022-08-19T01:46:11;97506.91;;;20.12;69.65
42601;BME280;28229;48.856;9.088;2022-08-19T01:48:39;97508.81;;;20.07;69.89
42601;BME280;28229;48.856;9.088;2022-08-19T01:51:07;97514.97;;;20.07;69.99
42601;BME280;28229;48.856;9.088;2022-08-19T01:53:33;97506.91;;;20.12;69.78
42601;BME280;28229;48.856;9.088;2022-08-19T01:55:59;97504.94;;;20.18;69.62
42601;BME280;28229;48.856;9.088;2022-08-19T01:58:30;97498.38;;;20.10;69.73
42601;BME280;28229;48.856;9.088;2022-08-19T02:00:58;97501.56;;;20.12;69.81
42601;BME280;28229;48.856;9.088;2022-08-19T02:03:24;97499.88;;;20.16;69.57
42601;BME280;28229;48.856;9.088;2022-08-19T02:05:58;97505.31;;;20.11;69.83
42601;BME280;28229;48.856;9.088;2022-08-19T02:08:29;97513.81;;;20.13;69.73
42601;BME280;28229;48.856;9.088;2022-08-19T02:10:55;97524.72;;;20.17;69.69
42601;BME280;28229;48.856;9.088;2022-08-19T02:13:22;97521.75;;;20.19;69.57
42601;BME280;28229;48.856;9.088;2022-08-19T02:15:48;97521.13;;;20.08;70.09
42601;BME280;28229;48.856;9.088;2022-08-19T02:18:14;97519.50;;;20.07;70.31
42601;BME280;28229;48.856;9.088;2022-08-19T02:20:42;97501.56;;;20.12;69.74
42601;BME280;28229;48.856;9.088;2022-08-19T02:23:10;97511.16;;;20.13;69.89
42601;BME280;28229;48.856;9.088;2022-08-19T02:25:36;97510.38;;;20.13;70.01
42601;BME280;28229;48.856;9.088;2022-08-19T02:28:02;97504.88;;;20.04;70.21
42601;BME280;28229;48.856;9.088;2022-08-19T02:30:28;97512.00;;;20.09;69.98
42601;BME280;28229;48.856;9.088;2022-08-19T02:32:54;97510.78;;;20.01;70.33
42601;BME280;28229;48.856;9.088;2022-08-19T02:35:20;97508.03;;;20.06;70.31
42601;BME280;28229;48.856;9.088;2022-08-19T02:37:47;97509.72;;;20.02;70.06
42601;BME280;28229;48.856;9.088;2022-08-19T02:40:33;97512.38;;;20.02;70.50
42601;BME280;28229;48.856;9.088;2022-08-19T02:43:07;97509.78;;;19.97;70.62
42601;BME280;28229;48.856;9.088;2022-08-19T02:45:35;97512.09;;;20.04;70.50
42601;BME280;28229;48.856;9.088;2022-08-19T02:48:02;97503.00;;;19.86;71.20
42601;BME280;28229;48.856;9.088;2022-08-19T02:50:28;97514.47;;;19.86;71.40
42601;BME280;28229;48.856;9.088;2022-08-19T02:52:54;97501.91;;;19.87;70.99
42601;BME280;28229;48.856;9.088;2022-08-19T02:55:20;97511.19;;;19.70;71.71
42601;BME280;28229;48.856;9.088;2022-08-19T02:57:47;97505.31;;;19.73;71.88
42601;BME280;28229;48.856;9.088;2022-08-19T03:00:13;97515.19;;;19.68;72.17
42601;BME280;28229;48.856;9.088;2022-08-19T03:02:40;97511.75;;;19.67;72.26
42601;BME280;28229;48.856;9.088;2022-08-19T03:05:07;97510.84;;;19.53;72.97
42601;BME280;28229;48.856;9.088;2022-08-19T03:07:36;97507.63;;;19.56;72.63
42601;BME280;28229;48.856;9.088;2022-08-19T03:10:03;97506.53;;;19.57;72.67
42601;BME280;28229;48.856;9.088;2022-08-19T03:12:29;97509.13;;;19.62;72.45
42601;BME280;28229;48.856;9.088;2022-08-19T03:14:55;97516.63;;;19.60;72.19
42601;BME280;28229;48.856;9.088;2022-08-19T03:17:21;97515.28;;;19.63;72.29
42601;BME280;28229;48.856;9.088;2022-08-19T03:19:47;97515.56;;;19.61;72.43
42601;BME280;28229;48.856;9.088;2022-08-19T03:22:13;97520.41;;;19.59;72.71
42601;BME280;28229;48.856;9.088;2022-08-19T03:24:39;97516.19;;;19.53;72.80
42601;BME280;28229;48.856;9.088;2022-08-19T03:27:05;97521.53;;;19.53;72.80
42601;BME280;28229;48.856;9.088;2022-08-19T03:29:32;97521.47;;;19.58;72.60
42601;BME280;28229;48.856;9.088;2022-08-19T03:31:59;97514.03;;;19.55;72.63
42601;BME280;28229;48.856;9.088;2022-08-19T03:34:28;97516.47;;;19.51;73.17
42601;BME280;28229;48.856;9.088;2022-08-19T03:37:02;97519.97;;;19.52;73.13
42601;BME280;28229;48.856;9.088;2022-08-19T03:39:29;97515.84;;;19.35;73.94
42601;BME280;28229;48.856;9.088;2022-08-19T03:41:55;97522.00;;;19.36;73.58
42601;BME280;28229;48.856;9.088;2022-08-19T03:44:26;97524.50;;;19.27;73.78
42601;BME280;28229;48.856;9.088;2022-08-19T03:46:56;97514.34;;;19.29;74.19
42601;BME280;28229;48.856;9.088;2022-08-19T03:49:24;97511.28;;;19.17;74.41
42601;BME280;28229;48.856;9.088;2022-08-19T03:51:50;97507.00;;;19.16;74.50
42601;BME280;28229;48.856;9.088;2022-08-19T03:54:19;97509.38;;;19.17;74.50
42601;BME280;28229;48.856;9.088;2022-08-19T03:56:47;97512.56;;;19.19;74.26
42601;BME280;28229;48.856;9.088;2022-08-19T03:59:21;97523.34;;;19.09;75.03
42601;BME280;28229;48.856;9.088;2022-08-19T04:01:55;97518.13;;;19.23;74.53
42601;BME280;28229;48.856;9.088;2022-08-19T04:04:22;97523.22;;;19.19;74.77
42601;BME280;28229;48.856;9.088;2022-08-19T04:06:49;97524.50;;;19.27;74.58
42601;BME280;28229;48.856;9.088;2022-08-19T04:09:16;97521.78;;;19.32;74.39
42601;BME280;28229;48.856;9.088;2022-08-19T04:11:46;97523.63;;;19.32;74.33
42601;BME280;28229;48.856;9.088;2022-08-19T04:14:16;97520.97;;;19.32;74.19
42601;BME280;28229;48.856;9.088;2022-08-19T04:16:42;97532.56;;;19.22;74.60
42601;BME280;28229;48.856;9.088;2022-08-19T04:19:10;97529.44;;;19.15;75.05
42601;BME280;28229;48.856;9.088;2022-08-19T04:21:36;97526.75;;;19.15;74.93
42601;BME280;28229;48.856;9.088;2022-08-19T04:24:03;97528.91;;;19.13;75.50
42601;BME280;28229;48.856;9.088;2022-08-19T04:26:33;97524.69;;;19.07;75.39
42601;BME280;28229;48.856;9.088;2022-08-19T04:29:13;97519.59;;;19.10;75.49
42601;BME280;28229;48.856;9.088;2022-08-19T04:31:40;97516.66;;;19.12;75.28
42601;BME280;28229;48.856;9.088;2022-08-19T04:34:08;97515.69;;;19.02;75.57
42601;BME280;28229;48.856;9.088;2022-08-19T04:36:39;97511.81;;;19.14;75.06
42601;BME280;28229;48.856;9.088;2022-08-19T04:39:15;97501.22;;;19.09;75.38
42601;BME280;28229;48.856;9.088;2022-08-19T04:41:41;97505.44;;;19.15;74.82
42601;BME280;28229;48.856;9.088;2022-08-19T04:44:26;97507.00;;;19.16;75.13
42601;BME280;28229;48.856;9.088;2022-08-19T04:46:54;97515.63;;;19.08;75.50
42601;BME280;28229;48.856;9.088;2022-08-19T04:49:21;97523.88;;;19.11;75.18
42601;BME280;28229;48.856;9.088;2022-08-19T04:51:49;97528.91;;;19.13;75.29
42601;BME280;28229;48.856;9.088;2022-08-19T04:54:17;97527.78;;;19.19;75.03
42601;BME280;28229;48.856;9.088;2022-08-19T04:56:44;97534.81;;;19.10;75.38
42601;BME280;28229;48.856;9.088;2022-08-19T04:59:10;97529.44;;;19.15;74.97
42601;BME280;28229;48.856;9.088;2022-08-19T05:01:37;97528.88;;;19.18;75.03
42601;BME280;28229;48.856;9.088;2022-08-19T05:04:05;97535.25;;;19.17;74.86
42601;BME280;28229;48.856;9.088;2022-08-19T05:06:33;97536.38;;;19.11;75.18
42601;BME280;28229;48.856;9.088;2022-08-19T05:09:00;97543.22;;;19.22;74.65
42601;BME280;28229;48.856;9.088;2022-08-19T05:11:33;97544.91;;;19.13;75.52
42601;BME280;28229;48.856;9.088;2022-08-19T05:13:59;97542.66;;;19.25;75.10
42601;BME280;28229;48.856;9.088;2022-08-19T05:16:26;97546.28;;;19.34;74.95
42601;BME280;28229;48.856;9.088;2022-08-19T05:18:53;97550.88;;;19.29;75.10
42601;BME280;28229;48.856;9.088;2022-08-19T05:21:39;97554.06;;;19.31;74.88
42601;BME280;28229;48.856;9.088;2022-08-19T05:24:24;97553.41;;;19.39;74.62
42601;BME280;28229;48.856;9.088;2022-08-19T05:26:52;97555.34;;;19.33;74.49
42601;BME280;28229;48.856;9.088;2022-08-19T05:29:20;97566.59;;;19.30;75.14
42601;BME280;28229;48.856;9.088;2022-08-19T05:31:47;97577.56;;;19.29;75.09
42601;BME280;28229;48.856;9.088;2022-08-19T05:34:16;97583.13;;;19.32;74.88
42601;BME280;28229;48.856;9.088;2022-08-19T05:36:43;97600.19;;;19.31;74.76
42601;BME280;28229;48.856;9.088;2022-08-19T05:39:14;97598.94;;;19.24;75.27
42601;BME280;28229;48.856;9.088;2022-08-19T05:41:45;97603.47;;;19.23;75.74
42601;BME280;28229;48.856;9.088;2022-08-19T05:44:12;97614.13;;;19.23;75.68
42601;BME280;28229;48.856;9.088;2022-08-19T05:46:38;97617.31;;;19.25;75.48
42601;BME280;28229;48.856;9.088;2022-08-19T05:49:06;97613.81;;;19.30;75.21
42601;BME280;28229;48.856;9.088;2022-08-19T05:51:33;97606.59;;;19.30;74.97
42601;BME280;28229;48.856;9.088;2022-08-19T05:54:04;97606.53;;;19.35;74.93
42601;BME280;28229;48.856;9.088;2022-08-19T05:56:32;97614.59;;;19.30;75.19
42601;BME280;28229;48.856;9.088;2022-08-19T05:58:58;97615.63;;;19.34;74.85
42601;BME280;28229;48.856;9.088;2022-08-19T06:01:26;97614.53;;;19.35;74.87
42601;BME280;28229;48.856;9.088;2022-08-19T06:03:52;97614.34;;;19.27;75.01
42601;BME280;28229;48.856;9.088;2022-08-19T06:06:18;97615.72;;;19.24;75.54
42601;BME280;28229;48.856;9.088;2022-08-19T06:08:44;97610.31;;;19.34;74.98
42601;BME280;28229;48.856;9.088;2022-08-19T06:13:41;97613.47;;;19.36;75.13
42601;BME280;28229;48.856;9.088;2022-08-19T06:16:07;97605.44;;;19.42;75.14
42601;BME280;28229;48.856;9.088;2022-08-19T06:18:33;97618.41;;;19.48;74.72
42601;BME280;28229;48.856;9.088;2022-08-19T06:20:59;97611.72;;;19.51;74.73
42601;BME280;28229;48.856;9.088;2022-08-19T06:23:30;97611.28;;;19.44;74.99
42601;BME280;28229;48.856;9.088;2022-08-19T06:25:56;97610.66;;;19.52;74.86
42601;BME280;28229;48.856;9.088;2022-08-19T06:28:22;97605.94;;;19.44;74.69
42601;BME280;28229;48.856;9.088;2022-08-19T06:30:49;97608.78;;;19.52;74.72
42601;BME280;28229;48.856;9.088;2022-08-19T06:33:16;97607.50;;;19.45;74.99
42601;BME280;28229;48.856;9.088;2022-08-19T06:35:42;97598.59;;;19.30;75.46
42601;BME280;28229;48.856;9.088;2022-08-19T06:38:08;97611.91;;;19.30;75.91
42601;BME280;28229;48.856;9.088;2022-08-19T06:40:35;97608.69;;;19.33;75.43
42601;BME280;28229;48.856;9.088;2022-08-19T06:43:03;97613.00;;;19.29;76.02
42601;BME280;28229;48.856;9.088;2022-08-19T06:45:29;97609.72;;;19.37;75.36
42601;BME280;28229;48.856;9.088;2022-08-19T06:47:56;97615.28;;;19.41;75.24
42601;BME280;28229;48.856;9.088;2022-08-19T06:50:23;97617.94;;;19.41;74.74
42601;BME280;28229;48.856;9.088;2022-08-19T06:52:51;97621.06;;;19.24;75.60
42601;BME280;28229;48.856;9.088;2022-08-19T06:55:17;97623.59;;;19.39;74.66
42601;BME280;28229;48.856;9.088;2022-08-19T06:57:43;97624.38;;;19.40;74.74
42601;BME280;28229;48.856;9.088;2022-08-19T07:00:12;97626.25;;;19.39;74.58
42601;BME280;28229;48.856;9.088;2022-08-19T07:02:43;97623.22;;;19.46;74.34
42601;BME280;28229;48.856;9.088;2022-08-19T07:05:09;97624.84;;;19.47;74.40
42601;BME280;28229;48.856;9.088;2022-08-19T07:07:35;97621.94;;;19.44;74.31
42601;BME280;28229;48.856;9.088;2022-08-19T07:10:03;97626.50;;;19.43;74.39
42601;BME280;28229;48.856;9.088;2022-08-19T07:12:30;97622.44;;;19.46;74.02
42601;BME280;28229;48.856;9.088;2022-08-19T07:15:00;97629.63;;;19.50;73.43
42601;BME280;28229;48.856;9.088;2022-08-19T07:17:26;97630.97;;;19.48;74.01
42601;BME280;28229;48.856;9.088;2022-08-19T07:19:52;97636.84;;;19.45;74.10
42601;BME280;28229;48.856;9.088;2022-08-19T07:22:18;97629.91;;;19.49;73.99
42601;BME280;28229;48.856;9.088;2022-08-19T07:24:47;97631.94;;;19.57;73.39
42601;BME280;28229;48.856;9.088;2022-08-19T07:27:14;97635.69;;;19.56;73.69
42601;BME280;28229;48.856;9.088;2022-08-19T07:29:40;97636.44;;;19.62;74.01
42601;BME280;28229;48.856;9.088;2022-08-19T07:32:06;97635.75;;;19.75;73.27
42601;BME280;28229;48.856;9.088;2022-08-19T07:34:32;97642.88;;;19.85;72.88
42601;BME280;28229;48.856;9.088;2022-08-19T07:37:04;97636.97;;;19.88;72.65
42601;BME280;28229;48.856;9.088;2022-08-19T07:39:32;97641.72;;;19.91;72.15
42601;BME280;28229;48.856;9.088;2022-08-19T07:42:02;97649.75;;;19.91;72.07
42601;BME280;28229;48.856;9.088;2022-08-19T07:44:29;97645.22;;;19.91;72.44
42601;BME280;28229;48.856;9.088;2022-08-19T07:46:56;97648.38;;;19.93;72.13
42601;BME280;28229;48.856;9.088;2022-08-19T07:49:23;97640.09;;;19.95;72.17
42601;BME280;28229;48.856;9.088;2022-08-19T07:51:54;97642.25;;;19.93;72.04
42601;BME280;28229;48.856;9.088;2022-08-19T07:54:22;97645.44;;;19.95;71.89
42601;BME280;28229;48.856;9.088;2022-08-19T07:56:48;97650.56;;;19.91;72.23
42601;BME280;28229;48.856;9.088;2022-08-19T07:59:17;97649.59;;;19.82;72.57
42601;BME280;28229;48.856;9.088;2022-08-19T08:01:44;97649.19;;;19.94;72.14
42601;BME280;28229;48.856;9.088;2022-08-19T08:04:10;97642.25;;;19.93;71.97
42601;BME280;28229;48.856;9.088;2022-08-19T08:06:55;97640.66;;;19.92;71.71
42601;BME280;28229;48.856;9.088;2022-08-19T08:09:42;97649.22;;;19.89;71.98
42601;BME280;28229;48.856;9.088;2022-08-19T08:12:12;97654.84;;;19.87;72.14
42601;BME280;28229;48.856;9.088;2022-08-19T08:14:47;97656.00;;;19.81;72.69
42601;BME280;28229;48.856;9.088;2022-08-19T08:17:16;97649.28;;;19.84;72.64
42601;BME280;28229;48.856;9.088;2022-08-19T08:19:43;97656.84;;;19.76;73.16
42601;BME280;28229;48.856;9.088;2022-08-19T08:22:10;97657.28;;;19.84;72.90
42601;BME280;28229;48.856;9.088;2022-08-19T08:25:11;97658.38;;;19.83;72.75
42601;BME280;28229;48.856;9.088;2022-08-19T08:27:40;97660.56;;;19.81;72.82
42601;BME280;28229;48.856;9.088;2022-08-19T08:30:08;97659.75;;;19.80;73.56
42601;BME280;28229;48.856;9.088;2022-08-19T08:32:39;97663.03;;;19.96;72.69
42601;BME280;28229;48.856;9.088;2022-08-19T08:35:08;97661.63;;;20.04;72.11
42601;BME280;28229;48.856;9.088;2022-08-19T08:37:34;97665.13;;;19.99;73.05
42601;BME280;28229;48.856;9.088;2022-08-19T08:42:59;97653.03;;;20.07;72.35
42601;BME280;28229;48.856;9.088;2022-08-19T08:45:30;97650.28;;;20.12;72.37
42601;BME280;28229;48.856;9.088;2022-08-19T08:47:58;97654.00;;;20.16;72.11
42601;BME280;28229;48.856;9.088;2022-08-19T08:50:33;97656.09;;;20.19;72.42
42601;BME280;28229;48.856;9.088;2022-08-19T08:53:05;97654.34;;;20.28;72.12
42601;BME280;28229;48.856;9.088;2022-08-19T08:55:31;97654.94;;;20.25;72.53
42601;BME280;28229;48.856;9.088;2022-08-19T08:58:10;97654.72;;;20.22;72.86
42601;BME280;28229;48.856;9.088;2022-08-19T09:00:43;97658.69;;;20.24;72.54
42601;BME280;28229;48.856;9.088;2022-08-19T09:03:20;97657.56;;;20.30;72.73
42601;BME280;28229;48.856;9.088;2022-08-19T09:06:00;97662.19;;;20.44;72.11
42601;BME280;28229;48.856;9.088;2022-08-19T09:16:53;97652.25;;;20.68;71.16
42601;BME280;28229;48.856;9.088;2022-08-19T09:19:19;97652.69;;;20.76;71.33
42601;BME280;28229;48.856;9.088;2022-08-19T09:21:45;97656.28;;;20.85;70.99
42601;BME280;28229;48.856;9.088;2022-08-19T09:24:11;97660.84;;;20.84;70.82
42601;BME280;28229;48.856;9.088;2022-08-19T09:26:36;97666.03;;;20.95;70.45
42601;BME280;28229;48.856;9.088;2022-08-19T09:29:02;97675.56;;;21.01;70.28
42601;BME280;28229;48.856;9.088;2022-08-19T09:31:31;97666.47;;;21.02;70.61
42601;BME280;28229;48.856;9.088;2022-08-19T09:33:58;97671.19;;;21.05;69.71
42601;BME280;28229;48.856;9.088;2022-08-19T09:36:27;97667.25;;;21.02;70.23
42601;BME280;28229;48.856;9.088;2022-08-19T09:38:55;97666.47;;;21.02;70.16
42601;BME280;28229;48.856;9.088;2022-08-19T09:41:23;97662.31;;;21.09;69.94
42601;BME280;28229;48.856;9.088;2022-08-19T09:43:53;97668.03;;;21.03;70.21
42601;BME280;28229;48.856;9.088;2022-08-19T09:46:23;97673.38;;;21.03;69.52
42601;BME280;28229;48.856;9.088;2022-08-19T09:48:50;97668.59;;;21.00;70.14
42601;BME280;28229;48.856;9.088;2022-08-19T09:51:23;97668.72;;;20.95;70.09
42601;BME280;28229;48.856;9.088;2022-08-19T09:53:50;97671.97;;;20.91;70.20
42601;BME280;28229;48.856;9.088;2022-08-19T09:56:17;97670.69;;;21.03;69.83
42601;BME280;28229;48.856;9.088;2022-08-19T09:58:44;97676.56;;;21.05;70.20
42601;BME280;28229;48.856;9.088;2022-08-19T10:01:16;97672.81;;;21.06;69.64
42601;BME280;28229;48.856;9.088;2022-08-19T10:03:43;97671.41;;;21.08;69.98
42601;BME280;28229;48.856;9.088;2022-08-19T10:06:09;97680.91;;;21.01;70.03
42601;BME280;28229;48.856;9.088;2022-08-19T10:08:36;97678.16;;;21.06;69.69
42601;BME280;28229;48.856;9.088;2022-08-19T10:11:03;97676.97;;;21.12;69.56
42601;BME280;28229;48.856;9.088;2022-08-19T10:13:30;97671.13;;;21.10;69.65
42601;BME280;28229;48.856;9.088;2022-08-19T10:16:06;97668.03;;;21.03;69.94
42601;BME280;28229;48.856;9.088;2022-08-19T10:18:33;97670.06;;;21.11;69.46
42601;BME280;28229;48.856;9.088;2022-08-19T10:21:08;97671.03;;;21.15;69.23
42601;BME280;28229;48.856;9.088;2022-08-19T10:23:36;97672.25;;;21.23;69.02
42601;BME280;28229;48.856;9.088;2022-08-19T10:26:06;97667.09;;;21.26;68.65
42601;BME280;28229;48.856;9.088;2022-08-19T10:28:34;97671.88;;;21.29;67.80
42601;BME280;28229;48.856;9.088;2022-08-19T10:31:11;97663.66;;;21.26;67.81
42601;BME280;28229;48.856;9.088;2022-08-19T10:33:38;97660.31;;;21.34;67.58
42601;BME280;28229;48.856;9.088;2022-08-19T10:36:13;97665.44;;;21.30;67.65
42601;BME280;28229;48.856;9.088;2022-08-19T10:38:45;97668.53;;;21.38;67.40
42601;BME280;28229;48.856;9.088;2022-08-19T10:41:14;97666.66;;;21.38;67.51
42601;BME280;28229;48.856;9.088;2022-08-19T10:43:41;97648.56;;;21.49;66.77
42601;BME280;28229;48.856;9.088;2022-08-19T10:46:09;97649.94;;;21.60;66.08
42601;BME280;28229;48.856;9.088;2022-08-19T10:48:36;97645.63;;;21.64;66.08
42601;BME280;28229;48.856;9.088;2022-08-19T10:51:03;97646.41;;;21.79;66.22
42601;BME280;28229;48.856;9.088;2022-08-19T10:53:47;97642.44;;;21.90;64.84
42601;BME280;28229;48.856;9.088;2022-08-19T10:56:13;97647.59;;;22.00;64.33
42601;BME280;28229;48.856;9.088;2022-08-19T10:58:58;97653.34;;;22.08;64.04
42601;BME280;28229;48.856;9.088;2022-08-19T11:01:25;97656.91;;;22.17;63.77
42601;BME280;28229;48.856;9.088;2022-08-19T11:03:51;97648.75;;;22.22;63.84
42601;BME280;28229;48.856;9.088;2022-08-19T11:06:18;97658.41;;;22.23;64.41
42601;BME280;28229;48.856;9.088;2022-08-19T11:08:45;97645.78;;;22.23;64.45
42601;BME280;28229;48.856;9.088;2022-08-19T11:11:12;97653.47;;;22.30;64.33
42601;BME280;28229;48.856;9.088;2022-08-19T11:13:39;97644.19;;;22.36;64.19
42601;BME280;28229;48.856;9.088;2022-08-19T11:16:12;97648.38;;;22.42;63.33
42601;BME280;28229;48.856;9.088;2022-08-19T11:18:47;97641.91;;;22.43;62.90
42601;BME280;28229;48.856;9.088;2022-08-19T11:21:19;97647.16;;;22.49;62.43
42601;BME280;28229;48.856;9.088;2022-08-19T11:23:47;97647.16;;;22.49;61.35
42601;BME280;28229;48.856;9.088;2022-08-19T11:26:14;97649.72;;;22.54;60.86
42601;BME280;28229;48.856;9.088;2022-08-19T11:28:41;97646.25;;;22.53;60.73
42601;BME280;28229;48.856;9.088;2022-08-19T11:31:16;97636.22;;;22.59;60.35
42601;BME280;28229;48.856;9.088;2022-08-19T11:33:48;97638.97;;;22.68;60.52
42601;BME280;28229;48.856;9.088;2022-08-19T11:36:17;97643.88;;;22.74;60.13
42601;BME280;28229;48.856;9.088;2022-08-19T11:38:44;97652.66;;;22.89;59.77
42601;BME280;28229;48.856;9.088;2022-08-19T11:41:10;97649.00;;;22.85;59.70
42601;BME280;28229;48.856;9.088;2022-08-19T11:43:37;97649.69;;;22.90;59.16
42601;BME280;28229;48.856;9.088;2022-08-19T11:46:07;97657.44;;;22.92;59.35
42601;BME280;28229;48.856;9.088;2022-08-19T11:48:34;97642.63;;;22.94;59.25
42601;BME280;28229;48.856;9.088;2022-08-19T11:51:04;97642.19;;;23.01;58.75
42601;BME280;28229;48.856;9.088;2022-08-19T11:53:32;97634.03;;;23.06;58.13
42601;BME280;28229;48.856;9.088;2022-08-19T11:55:58;97636.59;;;23.11;58.40
42601;BME280;28229;48.856;9.088;2022-08-19T11:58:24;97645.63;;;23.15;58.08
42601;BME280;28229;48.856;9.088;2022-08-19T12:00:53;97647.03;;;23.35;57.37
42601;BME280;28229;48.856;9.088;2022-08-19T12:03:18;97650.97;;;23.38;57.33
42601;BME280;28229;48.856;9.088;2022-08-19T12:05:48;97636.47;;;23.39;56.83
42601;BME280;28229;48.856;9.088;2022-08-19T12:08:16;97643.38;;;23.40;57.19
42601;BME280;28229;48.856;9.088;2022-08-19T12:10:43;97643.75;;;23.47;56.72
42601;BME280;28229;48.856;9.088;2022-08-19T12:13:12;97634.00;;;23.51;56.73
42601;BME280;28229;48.856;9.088;2022-08-19T12:15:41;97627.84;;;23.60;56.18
42601;BME280;28229;48.856;9.088;2022-08-19T12:18:08;97631.66;;;23.59;55.96
42601;BME280;28229;48.856;9.088;2022-08-19T12:20:39;97629.56;;;23.55;58.17
42601;BME280;28229;48.856;9.088;2022-08-19T12:23:07;97625.25;;;23.46;58.92
42601;BME280;28229;48.856;9.088;2022-08-19T12:25:34;97620.03;;;23.41;57.60
42601;BME280;28229;48.856;9.088;2022-08-19T12:28:00;97623.66;;;23.36;57.82
42601;BME280;28229;48.856;9.088;2022-08-19T12:30:26;97624.72;;;23.35;58.45
42601;BME280;28229;48.856;9.088;2022-08-19T12:32:52;97628.06;;;23.32;58.51
42601;BME280;28229;48.856;9.088;2022-08-19T12:35:18;97624.13;;;23.38;58.75
42601;BME280;28229;48.856;9.088;2022-08-19T12:37:47;97624.72;;;23.35;56.33
42601;BME280;28229;48.856;9.088;2022-08-19T12:40:14;97625.59;;;23.44;56.73
42601;BME280;28229;48.856;9.088;2022-08-19T12:42:41;97623.25;;;23.51;56.42
42601;BME280;28229;48.856;9.088;2022-08-19T12:45:11;97622.13;;;23.52;55.00
42601;BME280;28229;48.856;9.088;2022-08-19T12:47:38;97619.78;;;23.60;55.80
42601;BME280;28229;48.856;9.088;2022-08-19T12:50:05;97625.03;;;23.65;55.60
42601;BME280;28229;48.856;9.088;2022-08-19T12:52:35;97620.00;;;23.72;54.66
42601;BME280;28229;48.856;9.088;2022-08-19T12:55:07;97624.03;;;23.83;54.93
42601;BME280;28229;48.856;9.088;2022-08-19T12:57:34;97625.16;;;23.91;54.11
42601;BME280;28229;48.856;9.088;2022-08-19T13:00:03;97627.06;;;23.90;52.96
42601;BME280;28229;48.856;9.088;2022-08-19T13:02:32;97634.47;;;23.93;52.69
42601;BME280;28229;48.856;9.088;2022-08-19T13:04:58;97632.25;;;23.95;52.93
42601;BME280;28229;48.856;9.088;2022-08-19T13:07:24;97633.81;;;23.88;52.00
42601;BME280;28229;48.856;9.088;2022-08-19T13:09:53;97636.03;;;23.86;52.57
42601;BME280;28229;48.856;9.088;2022-08-19T13:12:19;97634.44;;;23.85;52.94
42601;BME280;28229;48.856;9.088;2022-08-19T13:14:46;97635.91;;;23.91;52.98
42601;BME280;28229;48.856;9.088;2022-08-19T13:17:15;97637.47;;;23.92;53.41
42601;BME280;28229;48.856;9.088;2022-08-19T13:19:42;97638.34;;;23.79;53.76
42601;BME280;28229;48.856;9.088;2022-08-19T13:22:08;97636.34;;;23.84;53.73
42601;BME280;28229;48.856;9.088;2022-08-19T13:24:33;97636.34;;;23.84;54.01